Time;durP1;ratioP1;P1;durP2;ratioP2;P2;SDS_P1;SDS_P2;PMS_P1;PMS_P2;Temp;Humidity;BMP_temperature;BMP_pressure;BME280_temperature;BME280_humidity;BME280_pressure;Samples;Min_cycle;Max_cycle;Signal;HPM_P1;HPM_P2
2022/01/12 08:54:40;;;;;;;26.53;7.53;;;5.80;99.90;;;;;;4898539;29;20232;-73
2022/01/12 08:57:07;;;;;;;21.53;7.60;;;5.90;99.90;;;;;;4907249;29;20202;-74
2022/01/12 08:59:34;;;;;;;15.17;6.57;;;5.80;99.90;;;;;;4900921;29;20234;-74
2022/01/12 09:02:01;;;;;;;18.57;7.23;;;5.50;99.90;;;;;;4897174;29;20214;-74
2022/01/12 09:04:28;;;;;;;20.40;7.40;;;5.50;99.90;;;;;;4897361;29;20689;-76
2022/01/12 09:06:57;;;;;;;21.10;7.20;;;5.60;99.90;;;;;;4895593;29;20210;-74
2022/01/12 09:09:24;;;;;;;19.60;7.33;;;5.70;99.90;;;;;;4898503;29;20908;-74
2022/01/12 09:11:53;;;;;;;18.87;7.10;;;5.60;99.90;;;;;;4899313;29;20215;-75
2022/01/12 09:14:20;;;;;;;25.03;7.10;;;5.60;99.90;;;;;;4900076;29;20213;-76
2022/01/12 09:16:54;;;;;;;23.63;7.73;;;5.50;99.90;;;;;;4901369;29;20253;-75
2022/01/12 09:19:21;;;;;;;24.00;6.87;;;5.60;99.90;;;;;;4898348;29;20301;-75
2022/01/12 09:29:27;;;;;;;20.83;8.13;;;5.70;99.90;;;;;;4967001;23;20231;-73
2022/01/12 09:31:54;;;;;;;24.20;8.37;;;5.80;99.90;;;;;;4963019;28;20200;-74
2022/01/12 09:34:21;;;;;;;26.63;8.30;;;5.80;99.90;;;;;;4956522;28;20212;-73
2022/01/12 09:36:48;;;;;;;21.90;8.20;;;5.70;99.90;;;;;;4956551;28;20208;-74
2022/01/12 09:39:14;;;;;;;26.10;8.57;;;5.80;99.90;;;;;;4957001;28;20212;-74
2022/01/12 09:41:41;;;;;;;18.80;7.23;;;5.90;99.90;;;;;;4956681;28;20215;-74
2022/01/12 09:44:08;;;;;;;26.17;8.70;;;5.90;99.90;;;;;;4956634;28;20208;-74
2022/01/12 09:46:36;;;;;;;21.77;8.13;;;6.00;99.90;;;;;;4956729;28;20244;-74
2022/01/12 09:49:06;;;;;;;25.37;8.40;;;5.90;99.90;;;;;;4937429;29;20213;-74
2022/01/12 09:51:33;;;;;;;23.93;7.80;;;6.10;99.90;;;;;;4937774;29;20220;-74
2022/01/12 09:54:00;;;;;;;26.57;9.03;;;6.20;99.90;;;;;;4937564;29;20663;-74
2022/01/12 09:56:29;;;;;;;20.83;7.50;;;6.20;99.90;;;;;;4937040;29;20239;-73
2022/01/12 09:58:59;;;;;;;24.07;7.90;;;6.20;99.90;;;;;;4937744;29;20209;-75
2022/01/12 10:01:29;;;;;;;26.40;8.53;;;6.20;99.90;;;;;;4937924;29;20209;-74
2022/01/12 10:04:08;;;;;;;23.87;8.27;;;6.20;99.90;;;;;;4937384;29;20235;-74
2022/01/12 10:06:39;;;;;;;27.43;8.33;;;6.30;99.90;;;;;;4937161;29;20240;-74
2022/01/12 10:09:06;;;;;;;36.50;9.60;;;6.40;99.90;;;;;;4943481;29;20208;-74
2022/01/12 10:11:33;;;;;;;22.77;8.33;;;6.40;99.90;;;;;;4952685;28;20659;-76
2022/01/12 10:14:02;;;;;;;24.23;8.07;;;6.50;99.90;;;;;;4956079;28;20211;-75
2022/01/12 10:16:29;;;;;;;33.03;10.20;;;6.50;99.90;;;;;;4955847;28;20244;-75
2022/01/12 10:19:01;;;;;;;31.20;9.57;;;6.50;99.90;;;;;;4955851;28;20204;-75
2022/01/12 10:21:34;;;;;;;23.80;8.40;;;6.60;99.90;;;;;;4955266;28;20221;-75
2022/01/12 10:24:05;;;;;;;27.23;8.03;;;6.50;99.90;;;;;;4955189;28;20208;-76
2022/01/12 10:26:37;;;;;;;28.07;9.93;;;6.50;99.90;;;;;;4954848;28;20405;-75
2022/01/12 10:29:06;;;;;;;30.07;9.07;;;6.60;99.90;;;;;;4936172;28;20212;-76
2022/01/12 10:31:47;;;;;;;32.33;9.70;;;6.70;99.90;;;;;;4936585;29;20671;-76
2022/01/12 10:34:14;;;;;;;27.67;8.83;;;6.70;99.90;;;;;;4936452;29;20749;-77
2022/01/12 10:36:44;;;;;;;29.83;9.50;;;6.70;99.90;;;;;;4936453;29;20564;-76
2022/01/12 10:39:13;;;;;;;30.67;8.37;;;6.90;99.90;;;;;;4937242;29;20235;-76
2022/01/12 10:41:53;;;;;;;25.23;8.53;;;6.70;99.90;;;;;;4947178;29;20219;-76
2022/01/12 10:44:21;;;;;;;32.83;9.47;;;6.80;99.90;;;;;;4942709;28;20301;-76
2022/01/12 10:46:48;;;;;;;29.00;9.30;;;6.90;99.90;;;;;;4942570;29;20243;-76
2022/01/12 10:49:20;;;;;;;36.40;10.73;;;6.80;99.90;;;;;;4944874;29;20201;-76
2022/01/12 10:51:56;;;;;;;33.37;10.40;;;6.60;99.90;;;;;;4941173;28;20247;-76
2022/01/12 10:54:23;;;;;;;35.23;10.63;;;6.70;99.90;;;;;;4945696;29;20547;-76
2022/01/12 10:56:50;;;;;;;31.17;9.13;;;6.50;99.90;;;;;;4947363;28;20212;-76
2022/01/12 10:59:17;;;;;;;30.53;10.00;;;6.50;99.90;;;;;;4936719;29;20215;-76
2022/01/12 11:01:45;;;;;;;24.87;8.50;;;6.80;99.90;;;;;;4936427;29;20238;-76
2022/01/12 11:04:12;;;;;;;28.27;10.07;;;6.80;99.90;;;;;;4936158;29;20664;-75
2022/01/12 11:06:41;;;;;;;25.63;9.03;;;7.00;99.90;;;;;;4946900;29;20584;-76
2022/01/12 11:09:09;;;;;;;28.73;9.17;;;7.10;99.90;;;;;;4949094;28;20208;-77
2022/01/12 11:11:36;;;;;;;35.93;10.27;;;7.30;99.90;;;;;;4940068;28;20297;-77
2022/01/12 11:14:03;;;;;;;28.20;9.20;;;7.30;99.90;;;;;;4944076;29;20213;-77
2022/01/12 11:16:30;;;;;;;32.87;9.77;;;7.30;99.90;;;;;;4948157;28;20717;-76
2022/01/12 11:18:58;;;;;;;30.30;9.67;;;7.10;99.90;;;;;;4954627;28;20212;-76
2022/01/12 11:21:34;;;;;;;31.83;8.63;;;7.30;99.90;;;;;;4950841;28;20205;-76
2022/01/12 11:24:02;;;;;;;30.47;9.73;;;7.30;99.90;;;;;;4935936;29;20215;-76
2022/01/12 11:26:32;;;;;;;25.83;8.77;;;7.30;99.90;;;;;;4935757;29;20248;-77
2022/01/12 11:29:00;;;;;;;24.83;8.93;;;7.30;99.90;;;;;;4935635;29;20702;-77
2022/01/12 11:31:29;;;;;;;31.10;8.87;;;7.60;99.90;;;;;;4935482;29;20402;-77
2022/01/12 11:33:56;;;;;;;26.20;9.47;;;7.60;99.90;;;;;;4942558;29;20722;-76
2022/01/12 11:36:27;;;;;;;31.63;9.27;;;7.70;99.90;;;;;;4954765;28;20227;-77
2022/01/12 11:39:01;;;;;;;22.33;9.10;;;7.70;99.90;;;;;;4955175;28;20270;-76
2022/01/12 11:41:31;;;;;;;24.87;8.07;;;7.90;99.90;;;;;;4955031;28;20215;-76
2022/01/12 11:44:08;;;;;;;25.37;8.57;;;7.90;99.90;;;;;;4954679;28;20220;-76
2022/01/12 11:46:44;;;;;;;24.33;7.97;;;7.90;99.90;;;;;;4954688;28;20231;-76
2022/01/12 11:49:11;;;;;;;28.07;8.83;;;8.00;99.90;;;;;;4954571;28;20218;-76
2022/01/12 11:51:41;;;;;;;28.77;8.57;;;8.10;99.90;;;;;;4953705;28;20555;-76
2022/01/12 11:54:11;;;;;;;29.07;9.43;;;8.30;99.90;;;;;;4954415;28;20211;-77
2022/01/12 11:56:53;;;;;;;21.97;8.53;;;8.20;99.90;;;;;;4954336;28;20208;-76
2022/01/12 11:59:21;;;;;;;25.57;9.40;;;8.10;99.90;;;;;;4953338;28;20732;-76
2022/01/12 12:01:51;;;;;;;31.03;8.83;;;7.90;99.90;;;;;;4944107;29;20554;-76
2022/01/12 12:04:26;;;;;;;21.87;8.70;;;7.70;99.90;;;;;;4954629;28;20243;-77
2022/01/12 12:07:04;;;;;;;21.73;7.57;;;7.60;99.90;;;;;;4937763;28;20233;-77
2022/01/12 12:09:37;;;;;;;27.63;8.70;;;7.50;99.90;;;;;;4935739;29;20212;-76
2022/01/12 12:12:13;;;;;;;30.00;8.47;;;7.70;99.90;;;;;;4935181;29;20213;-76
2022/01/12 12:14:40;;;;;;;32.73;10.43;;;7.80;99.90;;;;;;4951447;29;20698;-77
2022/01/12 12:17:08;;;;;;;33.77;10.70;;;7.70;99.90;;;;;;4954761;28;20223;-76
2022/01/12 12:19:37;;;;;;;37.37;11.47;;;7.60;99.90;;;;;;4953721;28;20259;-77
2022/01/12 12:22:09;;;;;;;38.83;11.37;;;7.50;99.90;;;;;;4943742;29;20208;-76
2022/01/12 12:24:36;;;;;;;37.43;10.30;;;7.50;99.90;;;;;;4954329;28;20228;-76
2022/01/12 12:27:04;;;;;;;35.03;11.40;;;7.40;99.90;;;;;;4938760;28;20235;-77
2022/01/12 12:29:32;;;;;;;32.93;10.97;;;7.40;99.90;;;;;;4938477;29;20350;-77
2022/01/12 12:32:00;;;;;;;41.53;11.53;;;7.40;99.90;;;;;;4938806;29;20205;-76
2022/01/12 12:34:30;;;;;;;41.87;11.47;;;7.40;99.90;;;;;;4939273;29;20716;-76
2022/01/12 12:37:01;;;;;;;29.33;8.43;;;7.60;99.90;;;;;;4938844;29;20208;-76
2022/01/12 12:39:32;;;;;;;25.70;8.77;;;7.60;99.90;;;;;;4939409;29;20212;-77
2022/01/12 12:41:59;;;;;;;26.13;7.40;;;7.80;99.90;;;;;;4938853;29;20212;-76
2022/01/12 12:44:27;;;;;;;23.33;7.17;;;7.80;99.90;;;;;;4939028;29;20228;-77
2022/01/12 12:47:09;;;;;;;25.30;6.87;;;8.00;99.90;;;;;;4939055;29;20236;-76
2022/01/12 12:49:51;;;;;;;28.73;9.37;;;8.00;99.90;;;;;;4938985;29;20295;-76
2022/01/12 12:52:26;;;;;;;26.20;8.93;;;7.90;99.90;;;;;;4947894;29;20567;-77
2022/01/12 12:54:54;;;;;;;28.23;8.97;;;8.00;99.90;;;;;;4957844;28;20238;-76
2022/01/12 12:57:21;;;;;;;25.23;8.47;;;8.00;99.90;;;;;;4952406;28;20211;-77
2022/01/12 12:59:50;;;;;;;26.20;8.53;;;8.00;99.90;;;;;;4938436;29;20219;-76
2022/01/12 13:02:18;;;;;;;29.70;9.90;;;8.10;99.90;;;;;;4951693;29;20204;-77
2022/01/12 13:04:45;;;;;;;30.27;9.27;;;8.20;99.90;;;;;;4950771;28;20700;-77
2022/01/12 13:07:14;;;;;;;34.97;9.60;;;8.30;99.90;;;;;;4941651;29;20243;-77
2022/01/12 13:09:41;;;;;;;24.80;9.50;;;8.20;99.90;;;;;;4958082;28;20204;-76
2022/01/12 13:12:09;;;;;;;26.53;8.10;;;8.10;99.90;;;;;;4957845;28;20215;-77
2022/01/12 13:14:43;;;;;;;24.93;8.37;;;7.80;99.90;;;;;;4955764;28;20219;-76
2022/01/12 13:17:10;;;;;;;27.07;9.00;;;7.80;99.90;;;;;;4953515;28;20211;-77
2022/01/12 13:22:27;;;;;;;25.80;9.33;;;7.70;99.90;;;;;;4950587;29;20567;-77
2022/01/12 13:24:55;;;;;;;30.60;9.23;;;7.60;99.90;;;;;;4945056;29;20232;-77
2022/01/12 13:27:23;;;;;;;26.43;8.97;;;7.60;99.90;;;;;;4937691;29;20239;-77
2022/01/12 13:29:51;;;;;;;29.50;9.50;;;7.60;99.90;;;;;;4937511;29;20231;-77
2022/01/12 13:32:18;;;;;;;30.40;10.17;;;7.60;99.90;;;;;;4941957;29;20667;-77
2022/01/12 13:34:57;;;;;;;33.93;10.10;;;7.60;99.90;;;;;;4956179;28;20228;-76
2022/01/12 13:37:24;;;;;;;33.60;9.90;;;7.70;99.90;;;;;;4957091;28;20609;-77
2022/01/12 13:40:04;;;;;;;33.00;10.27;;;7.90;99.90;;;;;;4956828;28;20663;-77
2022/01/12 13:42:31;;;;;;;28.23;9.07;;;7.50;99.90;;;;;;4957334;28;20204;-77
2022/01/12 13:45:05;;;;;;;25.87;8.67;;;7.50;99.90;;;;;;4956986;28;20224;-76
2022/01/12 13:47:35;;;;;;;26.70;8.47;;;7.60;99.90;;;;;;4951205;28;20286;-77
2022/01/12 13:50:07;;;;;;;27.90;8.83;;;7.40;99.90;;;;;;4957931;28;20219;-77
2022/01/12 13:52:33;;;;;;;26.13;7.83;;;7.30;99.90;;;;;;4942282;28;20555;-77
2022/01/12 13:55:09;;;;;;;24.47;8.73;;;6.90;99.90;;;;;;4938851;29;20228;-77
2022/01/12 13:57:36;;;;;;;29.70;9.43;;;6.50;99.90;;;;;;4956295;28;20642;-78
2022/01/12 14:00:07;;;;;;;32.80;10.10;;;6.50;99.90;;;;;;4956608;28;20214;-77
2022/01/12 14:02:42;;;;;;;32.13;10.47;;;6.70;99.90;;;;;;4956427;28;20219;-77
2022/01/12 14:05:17;;;;;;;36.37;10.50;;;6.70;99.90;;;;;;4956929;28;20231;-76
2022/01/12 14:07:58;;;;;;;32.33;9.90;;;6.70;99.90;;;;;;4950829;28;20287;-77
2022/01/12 14:10:26;;;;;;;25.33;7.93;;;6.60;99.90;;;;;;4936947;29;20209;-76
2022/01/12 14:12:53;;;;;;;30.10;9.33;;;6.60;99.90;;;;;;4936981;29;20205;-76
2022/01/12 14:15:25;;;;;;;28.43;10.10;;;6.60;99.90;;;;;;4936646;29;20224;-76
2022/01/12 14:17:52;;;;;;;32.93;10.53;;;6.90;99.90;;;;;;4937417;29;20208;-77
2022/01/12 14:20:27;;;;;;;26.43;8.90;;;7.00;99.90;;;;;;4936821;29;20609;-76
2022/01/12 14:22:58;;;;;;;32.10;8.97;;;7.00;99.90;;;;;;4936765;29;20579;-76
2022/01/12 14:25:37;;;;;;;30.40;7.80;;;7.20;99.90;;;;;;4936926;29;20228;-76
2022/01/12 14:28:05;;;;;;;32.77;7.43;;;7.30;99.90;;;;;;4936910;29;20595;-77
2022/01/12 14:30:32;;;;;;;32.43;8.30;;;7.20;99.90;;;;;;4936543;29;20209;-76
2022/01/12 14:32:59;;;;;;;27.90;8.67;;;7.20;99.90;;;;;;4938112;29;20219;-76
2022/01/12 14:35:28;;;;;;;29.57;8.47;;;7.10;99.90;;;;;;4935791;29;20345;-76
2022/01/12 14:37:56;;;;;;;32.57;8.97;;;7.00;99.90;;;;;;4946221;29;20214;-76
2022/01/12 14:40:23;;;;;;;26.57;8.53;;;6.90;99.90;;;;;;4942125;28;20212;-76
2022/01/12 14:42:53;;;;;;;32.23;8.83;;;6.90;99.90;;;;;;4945539;29;20667;-77
2022/01/12 14:45:23;;;;;;;25.17;7.67;;;6.70;99.90;;;;;;4936467;29;20318;-76
2022/01/12 14:47:51;;;;;;;21.87;7.10;;;6.80;99.90;;;;;;4936601;29;20243;-76
2022/01/12 14:50:18;;;;;;;23.17;7.37;;;6.80;99.90;;;;;;4935678;28;20641;-77
2022/01/12 14:52:47;;;;;;;24.23;7.63;;;6.90;99.90;;;;;;4935980;29;20213;-76
2022/01/12 14:55:15;;;;;;;23.53;7.53;;;6.80;99.90;;;;;;4936404;29;20224;-76
2022/01/12 14:57:42;;;;;;;28.90;8.23;;;6.80;99.90;;;;;;4936851;29;20213;-76
2022/01/12 15:00:16;;;;;;;23.60;8.37;;;6.80;99.90;;;;;;4936688;29;20213;-76
2022/01/12 15:02:43;;;;;;;27.90;6.47;;;6.80;99.90;;;;;;4937099;29;20664;-77
2022/01/12 15:05:10;;;;;;;21.53;7.20;;;6.60;99.90;;;;;;4936471;29;20235;-76
2022/01/12 15:07:36;;;;;;;21.70;7.27;;;6.80;99.90;;;;;;4948724;29;20228;-76
2022/01/12 15:10:07;;;;;;;22.03;6.90;;;6.80;99.90;;;;;;4955598;28;20208;-76
2022/01/12 15:12:37;;;;;;;24.00;6.80;;;6.80;99.90;;;;;;4945881;28;20209;-77
2022/01/12 15:15:07;;;;;;;22.67;7.10;;;6.70;99.90;;;;;;4941901;29;20224;-77
2022/01/12 15:17:35;;;;;;;23.53;7.27;;;6.70;99.90;;;;;;4954930;28;20521;-76
2022/01/12 15:20:07;;;;;;;29.83;8.47;;;6.60;99.90;;;;;;4945311;28;20215;-76
2022/01/12 15:22:35;;;;;;;24.83;7.83;;;6.60;99.90;;;;;;4954417;28;20544;-77
2022/01/12 15:25:02;;;;;;;20.70;7.67;;;6.60;99.90;;;;;;4955148;28;20230;-76
2022/01/12 15:27:30;;;;;;;24.97;7.73;;;6.50;99.90;;;;;;4955260;28;20240;-76
2022/01/12 15:29:57;;;;;;;19.90;7.20;;;6.60;99.90;;;;;;4955038;28;20220;-77
2022/01/12 15:32:26;;;;;;;20.83;7.70;;;6.60;99.90;;;;;;4941111;28;20283;-77
2022/01/12 15:34:53;;;;;;;29.00;8.37;;;6.60;99.90;;;;;;4936224;29;20319;-76
2022/01/12 15:37:20;;;;;;;25.17;7.73;;;6.70;99.90;;;;;;4936615;29;20304;-77
2022/01/12 15:39:47;;;;;;;20.87;7.10;;;6.60;99.90;;;;;;4935960;29;20205;-76
2022/01/12 15:42:15;;;;;;;21.43;7.13;;;6.70;99.90;;;;;;4936154;29;20244;-76
2022/01/12 15:44:44;;;;;;;24.60;7.50;;;6.70;99.90;;;;;;4934227;29;20235;-77
2022/01/12 15:47:12;;;;;;;24.00;7.43;;;6.60;99.90;;;;;;4936260;29;20232;-76
2022/01/12 15:49:39;;;;;;;27.03;7.97;;;6.60;99.90;;;;;;4935807;29;20209;-76
2022/01/12 15:52:06;;;;;;;25.90;7.80;;;6.50;99.90;;;;;;4935389;29;20208;-77
2022/01/12 15:54:33;;;;;;;25.20;7.07;;;6.50;99.90;;;;;;4939424;29;20224;-77
2022/01/12 15:57:00;;;;;;;23.13;6.77;;;6.50;99.90;;;;;;4954840;28;20212;-76
2022/01/12 15:59:27;;;;;;;20.77;6.43;;;6.40;99.90;;;;;;4954976;28;20219;-76
2022/01/12 16:01:55;;;;;;;23.13;7.30;;;6.40;99.90;;;;;;4954836;28;20234;-75
2022/01/12 16:04:22;;;;;;;21.83;7.03;;;6.30;99.90;;;;;;4954600;28;20211;-77
2022/01/12 16:06:49;;;;;;;21.80;6.67;;;6.30;99.90;;;;;;4954070;28;20218;-76
2022/01/12 16:09:16;;;;;;;23.17;7.60;;;6.40;99.90;;;;;;4953926;28;20571;-76
2022/01/12 16:11:43;;;;;;;21.93;7.07;;;6.50;99.90;;;;;;4955534;28;20227;-76
2022/01/12 16:14:10;;;;;;;21.67;7.17;;;6.50;99.90;;;;;;4954683;28;20204;-76
2022/01/12 16:16:38;;;;;;;20.67;6.57;;;6.50;99.90;;;;;;4954961;28;20204;-76
2022/01/12 16:19:07;;;;;;;24.23;7.30;;;6.50;99.90;;;;;;4935479;28;20205;-75
2022/01/12 16:21:34;;;;;;;22.50;7.27;;;6.60;99.90;;;;;;4936157;29;20214;-76
2022/01/12 16:24:03;;;;;;;21.00;6.90;;;6.60;99.90;;;;;;4936165;29;20212;-76
2022/01/12 16:26:30;;;;;;;19.77;6.57;;;6.70;99.90;;;;;;4940362;29;20711;-77
2022/01/12 16:28:57;;;;;;;21.17;6.73;;;6.70;99.90;;;;;;4956952;29;20226;-76
2022/01/12 16:31:25;;;;;;;22.23;6.43;;;6.80;99.90;;;;;;4956087;29;20212;-77
2022/01/12 16:33:53;;;;;;;25.20;6.37;;;6.80;99.90;;;;;;4953855;29;20223;-76
2022/01/12 16:36:23;;;;;;;25.80;7.80;;;6.80;99.90;;;;;;4953068;29;20301;-77
2022/01/12 16:38:51;;;;;;;19.87;6.40;;;6.60;99.90;;;;;;4937989;29;20216;-76
2022/01/12 16:41:18;;;;;;;26.23;6.37;;;6.30;99.90;;;;;;4936633;29;20204;-76
2022/01/12 16:43:45;;;;;;;22.93;6.83;;;6.50;99.90;;;;;;4940491;29;20200;-76
2022/01/12 16:46:14;;;;;;;25.60;7.20;;;6.70;99.90;;;;;;4939188;28;20251;-76
2022/01/12 16:48:42;;;;;;;21.50;7.07;;;6.40;99.90;;;;;;4935967;29;20237;-77
2022/01/12 16:51:10;;;;;;;35.50;9.67;;;6.20;99.90;;;;;;4935014;29;20219;-76
2022/01/12 16:53:40;;;;;;;32.50;9.30;;;6.00;99.90;;;;;;4949559;28;20208;-76
2022/01/12 16:56:09;;;;;;;31.67;10.03;;;6.10;99.90;;;;;;4935663;29;20591;-76
2022/01/12 16:58:37;;;;;;;19.60;6.67;;;6.20;99.90;;;;;;4935455;29;20212;-76
2022/01/12 17:01:07;;;;;;;23.33;6.83;;;6.30;99.90;;;;;;4935461;29;20212;-76
2022/01/12 17:03:35;;;;;;;18.47;5.90;;;6.50;99.90;;;;;;4935058;29;20205;-76
2022/01/12 17:06:02;;;;;;;18.87;5.87;;;6.20;99.90;;;;;;4934994;29;20687;-77
2022/01/12 17:08:29;;;;;;;20.37;6.40;;;6.30;99.90;;;;;;4936633;29;20248;-76
2022/01/12 17:10:57;;;;;;;25.50;7.13;;;6.20;99.90;;;;;;4953346;28;20235;-76
2022/01/12 17:13:24;;;;;;;42.97;11.70;;;6.20;99.90;;;;;;4954389;28;20222;-76
2022/01/12 17:16:20;;;;;;;25.17;6.37;;;6.10;99.90;;;;;;4957074;29;20232;-76
2022/01/12 17:18:58;;;;;;;18.57;5.60;;;6.00;99.90;;;;;;4957710;28;20223;-76
2022/01/12 17:21:26;;;;;;;22.67;6.47;;;5.90;99.90;;;;;;4958207;28;20216;-76
2022/01/12 17:24:01;;;;;;;21.73;6.87;;;5.90;99.90;;;;;;4957552;28;20212;-76
2022/01/12 17:27:04;;;;;;;24.27;8.10;;;6.20;99.90;;;;;;4957227;28;20229;-76
2022/01/12 17:29:32;;;;;;;17.30;5.97;;;5.80;99.90;;;;;;4912286;29;20693;-77
2022/01/12 17:31:59;;;;;;;19.87;6.90;;;5.70;99.90;;;;;;4905499;29;20300;-77
2022/01/12 17:34:28;;;;;;;25.60;7.63;;;5.80;99.90;;;;;;4925646;29;20204;-76
2022/01/12 17:36:56;;;;;;;23.27;8.47;;;5.70;99.90;;;;;;4946350;29;20283;-77
2022/01/12 17:39:25;;;;;;;15.40;5.47;;;5.70;99.90;;;;;;4953081;28;20200;-76
2022/01/12 17:41:54;;;;;;;16.47;6.23;;;5.70;99.90;;;;;;4956551;28;20212;-75
2022/01/12 17:44:24;;;;;;;17.77;5.20;;;5.90;99.90;;;;;;4955635;28;20212;-76
2022/01/12 17:46:52;;;;;;;14.23;5.23;;;6.10;99.90;;;;;;4956061;28;20208;-76
2022/01/12 17:49:22;;;;;;;22.20;7.70;;;6.20;99.90;;;;;;4955669;28;20263;-77
2022/01/12 17:51:50;;;;;;;20.87;6.77;;;6.20;99.90;;;;;;4956863;28;20695;-76
2022/01/12 17:54:21;;;;;;;15.13;5.63;;;6.10;99.90;;;;;;4956699;28;20218;-76
2022/01/12 17:56:49;;;;;;;15.77;5.00;;;6.10;99.90;;;;;;4956640;28;20251;-76
2022/01/12 17:59:16;;;;;;;14.57;4.83;;;6.00;99.90;;;;;;4954559;28;20230;-76
2022/01/12 18:01:45;;;;;;;14.00;5.07;;;5.90;99.90;;;;;;4956595;28;20215;-76
2022/01/12 18:04:12;;;;;;;13.27;4.57;;;5.80;99.90;;;;;;4956128;28;20208;-76
2022/01/12 18:06:39;;;;;;;14.43;4.70;;;5.70;99.90;;;;;;4956441;28;20233;-76
2022/01/12 18:09:07;;;;;;;15.50;5.17;;;5.70;99.90;;;;;;4942783;28;20706;-76
2022/01/12 18:11:34;;;;;;;21.47;6.67;;;5.80;99.90;;;;;;4951066;29;20208;-76
2022/01/12 18:14:00;;;;;;;14.47;4.77;;;5.80;99.90;;;;;;4946550;28;20651;-77
2022/01/12 18:16:28;;;;;;;12.80;4.20;;;5.70;99.90;;;;;;4944066;29;20226;-76
2022/01/12 18:19:00;;;;;;;13.80;4.73;;;5.50;99.90;;;;;;4955574;28;20212;-77
2022/01/12 18:21:28;;;;;;;12.60;4.80;;;5.60;99.90;;;;;;4955739;28;20675;-76
2022/01/12 18:23:55;;;;;;;16.30;5.43;;;5.50;99.90;;;;;;4956168;28;20210;-76
2022/01/12 18:26:22;;;;;;;12.93;4.87;;;5.50;99.90;;;;;;4954265;28;20255;-76
2022/01/12 18:28:49;;;;;;;14.47;5.27;;;5.50;99.90;;;;;;4955698;28;20236;-77
2022/01/12 18:31:16;;;;;;;16.80;4.97;;;5.50;99.90;;;;;;4955539;28;20212;-74
2022/01/12 18:33:43;;;;;;;12.90;5.27;;;5.50;99.90;;;;;;4955921;28;20208;-77
2022/01/12 18:36:12;;;;;;;13.90;5.27;;;5.60;99.90;;;;;;4955521;28;20228;-77
2022/01/12 18:38:43;;;;;;;16.13;5.17;;;5.70;99.90;;;;;;4954949;28;20207;-76
2022/01/12 18:41:10;;;;;;;15.10;4.40;;;5.70;99.90;;;;;;4955441;28;20201;-76
2022/01/12 18:43:37;;;;;;;15.43;5.03;;;5.70;99.90;;;;;;4955381;28;20208;-76
2022/01/12 18:46:04;;;;;;;15.33;5.50;;;5.50;99.90;;;;;;4955260;28;20216;-76
2022/01/12 18:48:32;;;;;;;14.63;4.83;;;5.40;99.90;;;;;;4955691;28;20232;-76
2022/01/12 18:50:59;;;;;;;17.10;4.53;;;5.40;99.90;;;;;;4955020;28;20206;-76
2022/01/12 18:53:27;;;;;;;13.87;5.20;;;5.20;99.90;;;;;;4954755;28;20204;-76
2022/01/12 18:55:54;;;;;;;20.07;5.67;;;5.20;99.90;;;;;;4948280;28;20226;-76
2022/01/12 18:58:21;;;;;;;12.90;5.03;;;5.30;99.90;;;;;;4946402;28;20301;-76
2022/01/12 19:00:48;;;;;;;16.60;5.13;;;5.30;99.90;;;;;;4937893;29;20238;-76
2022/01/12 19:03:15;;;;;;;18.50;5.33;;;5.20;99.90;;;;;;4946972;28;20205;-76
2022/01/12 19:05:42;;;;;;;16.37;4.33;;;5.30;99.90;;;;;;4944206;28;20220;-76
2022/01/12 19:08:10;;;;;;;15.47;5.50;;;5.40;99.90;;;;;;4945569;29;20315;-77
2022/01/12 19:10:38;;;;;;;16.10;5.27;;;5.50;99.90;;;;;;4940903;29;20261;-76
2022/01/12 19:13:05;;;;;;;15.87;4.90;;;5.50;99.90;;;;;;4940697;28;20207;-76
2022/01/12 19:15:34;;;;;;;14.80;4.90;;;5.60;99.90;;;;;;4955313;28;20251;-77
2022/01/12 19:18:01;;;;;;;14.47;5.70;;;5.60;99.90;;;;;;4954532;28;20678;-77
2022/01/12 19:20:28;;;;;;;23.00;7.97;;;5.70;99.90;;;;;;4954881;28;20214;-76
2022/01/12 19:22:54;;;;;;;15.27;5.53;;;5.60;99.90;;;;;;4955515;28;20215;-77
2022/01/12 19:25:22;;;;;;;21.33;7.20;;;5.80;99.90;;;;;;4955110;28;20737;-77
2022/01/12 19:27:51;;;;;;;18.73;6.60;;;5.60;99.90;;;;;;4954891;28;20208;-77
2022/01/12 19:30:18;;;;;;;16.87;5.43;;;5.60;99.90;;;;;;4954793;28;20319;-77
2022/01/12 19:32:46;;;;;;;18.50;5.77;;;5.60;99.90;;;;;;4954701;28;20212;-77
2022/01/12 19:35:15;;;;;;;19.83;5.87;;;5.80;99.90;;;;;;4954912;28;20259;-77
2022/01/12 19:37:42;;;;;;;18.93;6.23;;;5.70;99.90;;;;;;4954519;28;20671;-77
2022/01/12 19:40:11;;;;;;;22.80;5.40;;;5.60;99.90;;;;;;4955321;28;20303;-77
2022/01/12 19:42:38;;;;;;;20.60;7.47;;;5.70;99.90;;;;;;4955382;28;20214;-77
2022/01/12 19:45:07;;;;;;;18.03;6.30;;;5.80;99.90;;;;;;4954943;28;20235;-77
2022/01/12 19:47:34;;;;;;;18.30;5.00;;;5.90;99.90;;;;;;4954621;28;20214;-76
2022/01/12 19:50:00;;;;;;;18.60;5.57;;;5.90;99.90;;;;;;4954551;28;20595;-75
2022/01/12 19:52:36;;;;;;;16.70;5.43;;;5.80;99.90;;;;;;4954672;28;20222;-78
2022/01/12 19:55:09;;;;;;;16.63;5.20;;;5.60;99.90;;;;;;4954848;28;20638;-78
2022/01/12 19:57:38;;;;;;;15.13;5.37;;;5.60;99.90;;;;;;4951586;28;20197;-75
2022/01/12 20:00:12;;;;;;;15.43;4.70;;;5.50;99.90;;;;;;4935022;29;20325;-76
2022/01/12 20:02:49;;;;;;;13.53;4.17;;;5.30;99.90;;;;;;4935263;29;20208;-76
2022/01/12 20:05:17;;;;;;;13.17;5.00;;;5.30;99.90;;;;;;4942447;29;20347;-76
2022/01/12 20:07:44;;;;;;;11.30;4.80;;;5.20;99.90;;;;;;4954082;28;20219;-76
2022/01/12 20:10:12;;;;;;;8.80;4.17;;;5.20;99.90;;;;;;4954500;28;20290;-75
2022/01/12 20:12:40;;;;;;;14.90;5.30;;;5.10;99.90;;;;;;4953945;28;20215;-77
2022/01/12 20:15:09;;;;;;;17.17;5.80;;;5.20;99.90;;;;;;4954437;28;20234;-76
2022/01/12 20:17:52;;;;;;;10.63;5.33;;;5.30;99.90;;;;;;4954479;28;20263;-75
2022/01/12 20:24:06;;;;;;;16.77;5.27;;;5.30;99.90;;;;;;4945872;29;20251;-76
2022/01/12 20:26:33;;;;;;;14.63;5.23;;;5.30;99.90;;;;;;4937933;29;20228;-77
2022/01/12 20:29:01;;;;;;;18.40;5.23;;;5.30;99.90;;;;;;4944874;28;20587;-75
2022/01/12 20:31:29;;;;;;;13.13;4.60;;;5.10;99.90;;;;;;4946826;28;20196;-78
2022/01/12 20:33:56;;;;;;;15.73;5.43;;;5.10;99.90;;;;;;4937684;29;20583;-75
2022/01/12 20:36:23;;;;;;;14.90;4.60;;;4.90;99.90;;;;;;4933719;29;20315;-75
2022/01/12 20:38:50;;;;;;;14.10;4.60;;;4.90;99.90;;;;;;4934143;29;20658;-74
2022/01/12 20:41:17;;;;;;;14.30;5.13;;;5.00;99.90;;;;;;4934407;29;20304;-75
2022/01/12 20:43:44;;;;;;;20.47;5.77;;;5.10;99.90;;;;;;4934074;29;20240;-75
2022/01/12 20:46:12;;;;;;;14.00;5.20;;;5.10;99.90;;;;;;4934093;29;20224;-74
2022/01/12 20:48:40;;;;;;;13.00;4.47;;;5.10;99.90;;;;;;4935161;29;20232;-75
2022/01/12 20:51:07;;;;;;;17.23;5.53;;;5.10;99.90;;;;;;4938170;29;20567;-75
2022/01/12 20:53:34;;;;;;;15.50;5.40;;;5.20;99.90;;;;;;4938509;29;20648;-76
2022/01/12 20:56:01;;;;;;;16.03;5.27;;;5.20;99.90;;;;;;4938460;29;20237;-76
2022/01/12 20:58:28;;;;;;;15.80;5.97;;;5.10;99.90;;;;;;4948538;29;20230;-76
2022/01/12 21:00:55;;;;;;;19.47;6.37;;;4.90;99.90;;;;;;4957603;28;20204;-76
2022/01/12 21:03:21;;;;;;;13.50;4.90;;;5.00;99.90;;;;;;4958130;28;20540;-77
2022/01/12 21:05:50;;;;;;;19.90;5.67;;;5.20;99.90;;;;;;4944707;28;20319;-75
2022/01/12 21:08:16;;;;;;;16.50;5.73;;;5.00;99.90;;;;;;4937979;29;20205;-75
2022/01/12 21:10:43;;;;;;;20.07;6.20;;;5.00;99.90;;;;;;4938483;29;20582;-76
2022/01/12 21:13:12;;;;;;;13.47;5.23;;;5.10;99.90;;;;;;4938649;29;20267;-76
2022/01/12 21:15:43;;;;;;;18.43;6.87;;;5.20;99.90;;;;;;4951656;28;20224;-75
2022/01/12 21:18:10;;;;;;;20.30;5.60;;;5.30;99.90;;;;;;4938468;29;20213;-75
2022/01/12 21:20:37;;;;;;;16.03;5.57;;;5.40;99.90;;;;;;4944795;29;20675;-75
2022/01/12 21:23:06;;;;;;;19.10;6.70;;;5.40;99.90;;;;;;4957438;28;20566;-76
2022/01/12 21:25:33;;;;;;;16.70;6.70;;;5.40;99.90;;;;;;4957279;28;20290;-75
2022/01/12 21:28:00;;;;;;;17.60;6.73;;;5.40;99.90;;;;;;4957105;28;20204;-75
2022/01/12 21:30:27;;;;;;;21.07;5.80;;;5.50;99.90;;;;;;4956882;28;20591;-76
2022/01/12 21:32:54;;;;;;;17.00;5.80;;;5.50;99.90;;;;;;4948628;28;20216;-75
2022/01/12 21:35:25;;;;;;;19.33;7.03;;;5.40;99.90;;;;;;4950794;29;20897;-76
2022/01/12 21:37:55;;;;;;;20.17;5.87;;;5.50;99.90;;;;;;4939367;29;20211;-75
2022/01/12 21:40:36;;;;;;;23.90;6.53;;;5.60;99.90;;;;;;4937549;29;20296;-76
